sensor_id;sensor_type;location;lat;lon;timestamp;temperature;humidity
75164;HTU21D;63746;45.402;37.922;2023-06-22T05:40:59;24.97;59.73
75164;HTU21D;63746;45.402;37.922;2023-06-22T05:43:25;25.00;59.66
75164;HTU21D;63746;45.402;37.922;2023-06-22T05:45:51;25.00;59.73
75164;HTU21D;63746;45.402;37.922;2023-06-22T05:48:17;25.02;59.84
75164;HTU21D;63746;45.402;37.922;2023-06-22T05:50:43;25.03;59.93
75164;HTU21D;63746;45.402;37.922;2023-06-22T05:53:09;25.04;59.96
75164;HTU21D;63746;45.402;37.922;2023-06-22T05:55:35;25.06;60.00
75164;HTU21D;63746;45.402;37.922;2023-06-22T05:58:01;25.10;60.09
75164;HTU21D;63746;45.402;37.922;2023-06-22T06:00:29;25.17;60.08
75164;HTU21D;63746;45.402;37.922;2023-06-22T06:02:55;25.21;60.06
75164;HTU21D;63746;45.402;37.922;2023-06-22T06:05:21;25.25;59.99
75164;HTU21D;63746;45.402;37.922;2023-06-22T06:07:46;25.30;60.00
75164;HTU21D;63746;45.402;37.922;2023-06-22T06:10:13;25.35;60.02
75164;HTU21D;63746;45.402;37.922;2023-06-22T06:12:39;25.44;60.06
75164;HTU21D;63746;45.402;37.922;2023-06-22T06:15:05;25.53;59.99
75164;HTU21D;63746;45.402;37.922;2023-06-22T06:17:31;25.63;59.94
75164;HTU21D;63746;45.402;37.922;2023-06-22T06:20:00;25.71;59.78
75164;HTU21D;63746;45.402;37.922;2023-06-22T06:22:26;25.73;59.73
75164;HTU21D;63746;45.402;37.922;2023-06-22T06:24:52;25.77;59.70
75164;HTU21D;63746;45.402;37.922;2023-06-22T06:27:18;25.83;59.70
75164;HTU21D;63746;45.402;37.922;2023-06-22T06:29:44;25.89;59.69
75164;HTU21D;63746;45.402;37.922;2023-06-22T06:32:13;25.95;59.71
75164;HTU21D;63746;45.402;37.922;2023-06-22T06:34:39;26.02;59.57
75164;HTU21D;63746;45.402;37.922;2023-06-22T06:37:06;26.09;59.60
75164;HTU21D;63746;45.402;37.922;2023-06-22T06:39:32;26.15;59.49
75164;HTU21D;63746;45.402;37.922;2023-06-22T06:41:57;26.21;59.52
75164;HTU21D;63746;45.402;37.922;2023-06-22T06:44:23;26.28;59.49
75164;HTU21D;63746;45.402;37.922;2023-06-22T06:46:49;26.38;59.43
75164;HTU21D;63746;45.402;37.922;2023-06-22T06:49:15;26.45;59.36
75164;HTU21D;63746;45.402;37.922;2023-06-22T06:51:41;26.48;59.25
75164;HTU21D;63746;45.402;37.922;2023-06-22T06:54:07;26.54;59.28
75164;HTU21D;63746;45.402;37.922;2023-06-22T06:56:33;26.62;59.25
75164;HTU21D;63746;45.402;37.922;2023-06-22T06:58:59;26.69;59.19
75164;HTU21D;63746;45.402;37.922;2023-06-22T07:01:25;26.75;59.16
75164;HTU21D;63746;45.402;37.922;2023-06-22T07:03:50;26.83;59.03
75164;HTU21D;63746;45.402;37.922;2023-06-22T07:06:16;26.86;59.00
75164;HTU21D;63746;45.402;37.922;2023-06-22T07:08:42;26.89;58.95
75164;HTU21D;63746;45.402;37.922;2023-06-22T07:11:08;26.92;58.93
75164;HTU21D;63746;45.402;37.922;2023-06-22T07:13:34;26.92;58.92
75164;HTU21D;63746;45.402;37.922;2023-06-22T07:16:00;26.96;58.99
75164;HTU21D;63746;45.402;37.922;2023-06-22T07:18:26;27.06;58.97
75164;HTU21D;63746;45.402;37.922;2023-06-22T07:20:53;27.10;58.88
75164;HTU21D;63746;45.402;37.922;2023-06-22T07:23:19;27.15;58.83
75164;HTU21D;63746;45.402;37.922;2023-06-22T07:25:45;27.22;58.79
75164;HTU21D;63746;45.402;37.922;2023-06-22T07:28:11;27.26;58.68
75164;HTU21D;63746;45.402;37.922;2023-06-22T07:30:37;27.28;58.65
75164;HTU21D;63746;45.402;37.922;2023-06-22T07:33:03;27.29;58.54
75164;HTU21D;63746;45.402;37.922;2023-06-22T07:35:30;27.29;58.61
75164;HTU21D;63746;45.402;37.922;2023-06-22T07:37:56;27.32;58.64
75164;HTU21D;63746;45.402;37.922;2023-06-22T07:40:22;27.40;58.64
75164;HTU21D;63746;45.402;37.922;2023-06-22T07:42:48;27.45;58.52
75164;HTU21D;63746;45.402;37.922;2023-06-22T07:45:17;27.47;58.41
75164;HTU21D;63746;45.402;37.922;2023-06-22T07:47:43;27.49;58.38
75164;HTU21D;63746;45.402;37.922;2023-06-22T07:50:09;27.52;58.43
75164;HTU21D;63746;45.402;37.922;2023-06-22T07:52:35;27.56;58.41
75164;HTU21D;63746;45.402;37.922;2023-06-22T07:55:02;27.63;58.41
75164;HTU21D;63746;45.402;37.922;2023-06-22T07:57:28;27.72;58.34
75164;HTU21D;63746;45.402;37.922;2023-06-22T08:00:05;27.80;58.18
75164;HTU21D;63746;45.402;37.922;2023-06-22T08:02:44;27.81;58.05
75164;HTU21D;63746;45.402;37.922;2023-06-22T08:05:10;27.82;58.08
75164;HTU21D;63746;45.402;37.922;2023-06-22T08:07:37;27.85;58.10
75164;HTU21D;63746;45.402;37.922;2023-06-22T08:10:05;27.88;58.00
75164;HTU21D;63746;45.402;37.922;2023-06-22T08:12:31;27.89;57.94
75164;HTU21D;63746;45.402;37.922;2023-06-22T08:14:57;27.90;57.96
75164;HTU21D;63746;45.402;37.922;2023-06-22T08:17:24;27.94;57.82
75164;HTU21D;63746;45.402;37.922;2023-06-22T08:19:50;27.90;57.85
75164;HTU21D;63746;45.402;37.922;2023-06-22T08:22:16;27.93;57.87
75164;HTU21D;63746;45.402;37.922;2023-06-22T08:24:42;27.94;57.76
75164;HTU21D;63746;45.402;37.922;2023-06-22T08:27:10;27.94;57.74
75164;HTU21D;63746;45.402;37.922;2023-06-22T08:29:39;27.97;57.89
75164;HTU21D;63746;45.402;37.922;2023-06-22T08:32:05;28.05;57.93
75164;HTU21D;63746;45.402;37.922;2023-06-22T08:34:32;28.12;57.77
75164;HTU21D;63746;45.402;37.922;2023-06-22T08:36:58;28.19;57.77
75164;HTU21D;63746;45.402;37.922;2023-06-22T08:39:24;28.28;57.64
75164;HTU21D;63746;45.402;37.922;2023-06-22T08:41:50;28.33;57.52
75164;HTU21D;63746;45.402;37.922;2023-06-22T08:44:18;28.34;57.32
75164;HTU21D;63746;45.402;37.922;2023-06-22T08:46:45;28.35;57.34
75164;HTU21D;63746;45.402;37.922;2023-06-22T08:49:11;28.37;57.38
75164;HTU21D;63746;45.402;37.922;2023-06-22T08:51:37;28.39;57.35
75164;HTU21D;63746;45.402;37.922;2023-06-22T08:54:03;28.38;57.23
75164;HTU21D;63746;45.402;37.922;2023-06-22T08:56:29;28.38;57.24
75164;HTU21D;63746;45.402;37.922;2023-06-22T08:58:55;28.35;57.21
75164;HTU21D;63746;45.402;37.922;2023-06-22T09:01:21;28.34;57.20
75164;HTU21D;63746;45.402;37.922;2023-06-22T09:03:47;28.34;57.26
75164;HTU21D;63746;45.402;37.922;2023-06-22T09:06:22;28.35;57.07
75164;HTU21D;63746;45.402;37.922;2023-06-22T09:08:48;28.38;57.28
75164;HTU21D;63746;45.402;37.922;2023-06-22T09:11:14;28.44;57.34
75164;HTU21D;63746;45.402;37.922;2023-06-22T09:13:40;28.53;57.26
75164;HTU21D;63746;45.402;37.922;2023-06-22T09:16:06;28.59;57.10
75164;HTU21D;63746;45.402;37.922;2023-06-22T09:18:34;28.61;57.07
75164;HTU21D;63746;45.402;37.922;2023-06-22T09:21:00;28.69;57.06
75164;HTU21D;63746;45.402;37.922;2023-06-22T09:23:26;28.73;56.96
75164;HTU21D;63746;45.402;37.922;2023-06-22T09:25:52;28.77;56.92
75164;HTU21D;63746;45.402;37.922;2023-06-22T09:28:18;28.83;56.92
75164;HTU21D;63746;45.402;37.922;2023-06-22T09:30:44;28.91;56.91
75164;HTU21D;63746;45.402;37.922;2023-06-22T09:33:10;28.99;56.84
75164;HTU21D;63746;45.402;37.922;2023-06-22T09:35:36;29.08;56.69
75164;HTU21D;63746;45.402;37.922;2023-06-22T09:38:02;29.13;56.61
75164;HTU21D;63746;45.402;37.922;2023-06-22T09:40:28;29.14;56.50
75164;HTU21D;63746;45.402;37.922;2023-06-22T09:42:54;29.17;56.56
75164;HTU21D;63746;45.402;37.922;2023-06-22T09:45:20;29.22;56.45
75164;HTU21D;63746;45.402;37.922;2023-06-22T09:47:45;29.22;56.27
75164;HTU21D;63746;45.402;37.922;2023-06-22T09:50:11;29.19;56.28
75164;HTU21D;63746;45.402;37.922;2023-06-22T09:52:37;29.18;56.33
75164;HTU21D;63746;45.402;37.922;2023-06-22T09:55:04;29.20;56.34
75164;HTU21D;63746;45.402;37.922;2023-06-22T09:57:30;29.21;56.32
75164;HTU21D;63746;45.402;37.922;2023-06-22T09:59:56;29.26;56.28
75164;HTU21D;63746;45.402;37.922;2023-06-22T10:02:22;29.27;56.14
75164;HTU21D;63746;45.402;37.922;2023-06-22T10:04:48;29.26;56.23
75164;HTU21D;63746;45.402;37.922;2023-06-22T10:07:14;29.27;56.20
75164;HTU21D;63746;45.402;37.922;2023-06-22T10:09:40;29.28;56.21
75164;HTU21D;63746;45.402;37.922;2023-06-22T10:12:07;29.29;56.16
75164;HTU21D;63746;45.402;37.922;2023-06-22T10:14:33;29.29;56.16
75164;HTU21D;63746;45.402;37.922;2023-06-22T10:16:59;29.31;56.16
75164;HTU21D;63746;45.402;37.922;2023-06-22T10:19:24;29.32;56.13
75164;HTU21D;63746;45.402;37.922;2023-06-22T10:21:50;29.35;56.12
75164;HTU21D;63746;45.402;37.922;2023-06-22T10:24:17;29.37;56.11
75164;HTU21D;63746;45.402;37.922;2023-06-22T10:26:43;29.41;56.00
75164;HTU21D;63746;45.402;37.922;2023-06-22T10:29:09;29.41;55.94
75164;HTU21D;63746;45.402;37.922;2023-06-22T10:31:35;29.42;55.94
75164;HTU21D;63746;45.402;37.922;2023-06-22T10:34:01;29.39;55.84
75164;HTU21D;63746;45.402;37.922;2023-06-22T10:36:27;29.35;55.83
75164;HTU21D;63746;45.402;37.922;2023-06-22T10:38:53;29.32;55.89
75164;HTU21D;63746;45.402;37.922;2023-06-22T10:41:19;29.33;55.93
75164;HTU21D;63746;45.402;37.922;2023-06-22T10:43:45;29.33;55.92
75164;HTU21D;63746;45.402;37.922;2023-06-22T10:46:12;29.36;55.90
75164;HTU21D;63746;45.402;37.922;2023-06-22T10:48:38;29.39;55.86
75164;HTU21D;63746;45.402;37.922;2023-06-22T10:51:04;29.44;55.84
75164;HTU21D;63746;45.402;37.922;2023-06-22T10:53:30;29.49;55.88
75164;HTU21D;63746;45.402;37.922;2023-06-22T10:55:55;29.57;55.78
75164;HTU21D;63746;45.402;37.922;2023-06-22T10:58:21;29.62;55.64
75164;HTU21D;63746;45.402;37.922;2023-06-22T11:00:47;29.64;55.59
75164;HTU21D;63746;45.402;37.922;2023-06-22T11:03:13;29.66;55.49
75164;HTU21D;63746;45.402;37.922;2023-06-22T11:05:40;29.67;55.52
75164;HTU21D;63746;45.402;37.922;2023-06-22T11:08:07;29.68;55.35
75164;HTU21D;63746;45.402;37.922;2023-06-22T11:10:32;29.63;55.36
75164;HTU21D;63746;45.402;37.922;2023-06-22T11:12:58;29.61;55.42
75164;HTU21D;63746;45.402;37.922;2023-06-22T11:15:25;29.64;55.49
75164;HTU21D;63746;45.402;37.922;2023-06-22T11:17:51;29.71;55.49
75164;HTU21D;63746;45.402;37.922;2023-06-22T11:20:17;29.76;55.42
75164;HTU21D;63746;45.402;37.922;2023-06-22T11:22:43;29.80;55.32
75164;HTU21D;63746;45.402;37.922;2023-06-22T11:25:09;29.82;55.21
75164;HTU21D;63746;45.402;37.922;2023-06-22T11:27:36;29.80;55.12
75164;HTU21D;63746;45.402;37.922;2023-06-22T11:30:03;29.79;55.20
75164;HTU21D;63746;45.402;37.922;2023-06-22T11:32:29;29.82;55.18
75164;HTU21D;63746;45.402;37.922;2023-06-22T11:34:56;29.85;55.09
75164;HTU21D;63746;45.402;37.922;2023-06-22T11:37:22;29.83;55.07
75164;HTU21D;63746;45.402;37.922;2023-06-22T11:39:48;29.81;55.00
75164;HTU21D;63746;45.402;37.922;2023-06-22T11:42:14;29.77;55.00
75164;HTU21D;63746;45.402;37.922;2023-06-22T11:44:41;29.73;54.94
75164;HTU21D;63746;45.402;37.922;2023-06-22T11:47:07;29.68;54.99
75164;HTU21D;63746;45.402;37.922;2023-06-22T11:49:33;29.65;55.04
75164;HTU21D;63746;45.402;37.922;2023-06-22T11:51:59;29.64;55.04
75164;HTU21D;63746;45.402;37.922;2023-06-22T11:54:24;29.62;55.01
75164;HTU21D;63746;45.402;37.922;2023-06-22T11:56:50;29.60;55.05
75164;HTU21D;63746;45.402;37.922;2023-06-22T11:59:16;29.58;54.98
75164;HTU21D;63746;45.402;37.922;2023-06-22T12:01:42;29.54;54.97
75164;HTU21D;63746;45.402;37.922;2023-06-22T12:04:08;29.52;55.01
75164;HTU21D;63746;45.402;37.922;2023-06-22T12:06:38;29.51;55.01
75164;HTU21D;63746;45.402;37.922;2023-06-22T12:09:06;29.56;54.99
75164;HTU21D;63746;45.402;37.922;2023-06-22T12:11:33;29.56;54.96
75164;HTU21D;63746;45.402;37.922;2023-06-22T12:13:58;29.57;54.91
75164;HTU21D;63746;45.402;37.922;2023-06-22T12:16:28;29.57;54.89
75164;HTU21D;63746;45.402;37.922;2023-06-22T12:18:54;29.59;54.88
75164;HTU21D;63746;45.402;37.922;2023-06-22T12:21:20;29.61;54.86
75164;HTU21D;63746;45.402;37.922;2023-06-22T12:23:46;29.62;54.81
75164;HTU21D;63746;45.402;37.922;2023-06-22T12:26:12;29.64;54.80
75164;HTU21D;63746;45.402;37.922;2023-06-22T12:28:38;29.65;54.75
75164;HTU21D;63746;45.402;37.922;2023-06-22T12:31:04;29.70;54.71
75164;HTU21D;63746;45.402;37.922;2023-06-22T12:33:29;29.70;54.59
75164;HTU21D;63746;45.402;37.922;2023-06-22T12:35:56;29.67;54.56
75164;HTU21D;63746;45.402;37.922;2023-06-22T12:38:22;29.66;54.59
75164;HTU21D;63746;45.402;37.922;2023-06-22T12:40:51;29.64;54.52
75164;HTU21D;63746;45.402;37.922;2023-06-22T12:43:18;29.61;54.54
75164;HTU21D;63746;45.402;37.922;2023-06-22T12:45:44;29.61;54.52
75164;HTU21D;63746;45.402;37.922;2023-06-22T12:48:09;29.57;54.54
75164;HTU21D;63746;45.402;37.922;2023-06-22T12:50:35;29.57;54.54
75164;HTU21D;63746;45.402;37.922;2023-06-22T12:53:01;29.54;54.51
75164;HTU21D;63746;45.402;37.922;2023-06-22T12:55:28;29.52;54.47
75164;HTU21D;63746;45.402;37.922;2023-06-22T12:57:54;29.48;54.44
75164;HTU21D;63746;45.402;37.922;2023-06-22T13:00:20;29.44;54.49
75164;HTU21D;63746;45.402;37.922;2023-06-22T13:02:46;29.43;54.52
75164;HTU21D;63746;45.402;37.922;2023-06-22T13:05:12;29.42;54.52
75164;HTU21D;63746;45.402;37.922;2023-06-22T13:07:38;29.42;54.49
75164;HTU21D;63746;45.402;37.922;2023-06-22T13:10:04;29.41;54.46
75164;HTU21D;63746;45.402;37.922;2023-06-22T13:12:30;29.39;54.39
75164;HTU21D;63746;45.402;37.922;2023-06-22T13:14:56;29.36;54.40
75164;HTU21D;63746;45.402;37.922;2023-06-22T13:17:22;29.34;54.42
75164;HTU21D;63746;45.402;37.922;2023-06-22T13:19:48;29.33;54.42
75164;HTU21D;63746;45.402;37.922;2023-06-22T13:22:33;29.32;53.88
75164;HTU21D;63746;45.402;37.922;2023-06-22T13:25:06;29.34;54.37
75164;HTU21D;63746;45.402;37.922;2023-06-22T13:27:32;29.31;54.38
75164;HTU21D;63746;45.402;37.922;2023-06-22T13:29:58;29.31;54.36
75164;HTU21D;63746;45.402;37.922;2023-06-22T13:32:24;29.31;54.32
75164;HTU21D;63746;45.402;37.922;2023-06-22T13:34:50;29.29;54.30
75164;HTU21D;63746;45.402;37.922;2023-06-22T13:37:16;29.27;54.26
75164;HTU21D;63746;45.402;37.922;2023-06-22T13:39:43;29.23;54.24
75164;HTU21D;63746;45.402;37.922;2023-06-22T13:42:09;29.20;54.26
75164;HTU21D;63746;45.402;37.922;2023-06-22T13:44:34;29.18;54.26
75164;HTU21D;63746;45.402;37.922;2023-06-22T13:47:00;29.16;54.26
75164;HTU21D;63746;45.402;37.922;2023-06-22T13:49:27;29.13;54.22
75164;HTU21D;63746;45.402;37.922;2023-06-22T13:51:53;29.09;54.21
75164;HTU21D;63746;45.402;37.922;2023-06-22T13:54:19;29.05;54.26
75164;HTU21D;63746;45.402;37.922;2023-06-22T13:56:45;29.05;54.22
75164;HTU21D;63746;45.402;37.922;2023-06-22T13:59:11;29.02;54.23
75164;HTU21D;63746;45.402;37.922;2023-06-22T14:01:37;29.02;54.20
75164;HTU21D;63746;45.402;37.922;2023-06-22T14:04:05;28.98;54.20
75164;HTU21D;63746;45.402;37.922;2023-06-22T14:06:31;28.95;54.20
75164;HTU21D;63746;45.402;37.922;2023-06-22T14:08:57;28.95;54.17
75164;HTU21D;63746;45.402;37.922;2023-06-22T14:11:24;28.93;54.12
75164;HTU21D;63746;45.402;37.922;2023-06-22T14:13:50;28.92;54.14
75164;HTU21D;63746;45.402;37.922;2023-06-22T14:16:16;28.89;54.11
75164;HTU21D;63746;45.402;37.922;2023-06-22T14:18:42;28.85;54.11
75164;HTU21D;63746;45.402;37.922;2023-06-22T14:21:08;28.82;54.12
75164;HTU21D;63746;45.402;37.922;2023-06-22T14:23:34;28.78;54.10
75164;HTU21D;63746;45.402;37.922;2023-06-22T14:26:00;28.74;54.10
75164;HTU21D;63746;45.402;37.922;2023-06-22T14:28:26;28.70;54.12
75164;HTU21D;63746;45.402;37.922;2023-06-22T14:30:51;28.65;54.11
75164;HTU21D;63746;45.402;37.922;2023-06-22T14:33:17;28.61;54.10
75164;HTU21D;63746;45.402;37.922;2023-06-22T14:35:43;28.56;54.11
75164;HTU21D;63746;45.402;37.922;2023-06-22T14:38:09;28.49;54.13
75164;HTU21D;63746;45.402;37.922;2023-06-22T14:40:35;28.45;54.14
75164;HTU21D;63746;45.402;37.922;2023-06-22T14:43:01;28.41;54.17
75164;HTU21D;63746;45.402;37.922;2023-06-22T14:45:27;28.37;54.14
75164;HTU21D;63746;45.402;37.922;2023-06-22T14:47:53;28.28;54.13
75164;HTU21D;63746;45.402;37.922;2023-06-22T14:50:19;28.20;54.19
75164;HTU21D;63746;45.402;37.922;2023-06-22T14:52:45;28.16;54.20
75164;HTU21D;63746;45.402;37.922;2023-06-22T14:55:11;28.11;54.24
75164;HTU21D;63746;45.402;37.922;2023-06-22T14:57:37;28.06;54.27
75164;HTU21D;63746;45.402;37.922;2023-06-22T15:00:03;28.02;54.23
75164;HTU21D;63746;45.402;37.922;2023-06-22T15:02:31;28.01;54.24
75164;HTU21D;63746;45.402;37.922;2023-06-22T15:04:57;27.98;54.24
75164;HTU21D;63746;45.402;37.922;2023-06-22T15:07:23;27.96;54.23
75164;HTU21D;63746;45.402;37.922;2023-06-22T15:09:49;27.93;54.22
75164;HTU21D;63746;45.402;37.922;2023-06-22T15:12:15;27.89;54.21
75164;HTU21D;63746;45.402;37.922;2023-06-22T15:14:41;27.85;54.23
75164;HTU21D;63746;45.402;37.922;2023-06-22T15:17:08;27.82;54.22
75164;HTU21D;63746;45.402;37.922;2023-06-22T15:19:38;27.78;54.20
75164;HTU21D;63746;45.402;37.922;2023-06-22T15:22:05;27.74;54.17
75164;HTU21D;63746;45.402;37.922;2023-06-22T15:24:32;27.74;54.23
75164;HTU21D;63746;45.402;37.922;2023-06-22T15:26:58;27.72;54.19
75164;HTU21D;63746;45.402;37.922;2023-06-22T15:29:24;27.67;54.16
75164;HTU21D;63746;45.402;37.922;2023-06-22T15:31:51;27.64;54.18
75164;HTU21D;63746;45.402;37.922;2023-06-22T15:34:18;27.61;54.20
75164;HTU21D;63746;45.402;37.922;2023-06-22T15:36:44;27.61;54.20
75164;HTU21D;63746;45.402;37.922;2023-06-22T15:39:10;27.58;54.17
75164;HTU21D;63746;45.402;37.922;2023-06-22T15:41:39;27.55;54.06
75164;HTU21D;63746;45.402;37.922;2023-06-22T15:44:06;27.54;54.16
75164;HTU21D;63746;45.402;37.922;2023-06-22T15:46:32;27.50;54.15
75164;HTU21D;63746;45.402;37.922;2023-06-22T15:48:58;27.46;54.15
75164;HTU21D;63746;45.402;37.922;2023-06-22T15:51:23;27.44;54.18
75164;HTU21D;63746;45.402;37.922;2023-06-22T15:53:50;27.42;54.18
75164;HTU21D;63746;45.402;37.922;2023-06-22T15:56:16;27.41;54.19
75164;HTU21D;63746;45.402;37.922;2023-06-22T15:58:42;27.40;54.17
75164;HTU21D;63746;45.402;37.922;2023-06-22T16:01:07;27.38;54.11
75164;HTU21D;63746;45.402;37.922;2023-06-22T16:03:36;27.38;54.10
75164;HTU21D;63746;45.402;37.922;2023-06-22T16:06:04;27.35;54.11
75164;HTU21D;63746;45.402;37.922;2023-06-22T16:08:30;27.32;54.08
75164;HTU21D;63746;45.402;37.922;2023-06-22T16:10:56;27.28;54.08
75164;HTU21D;63746;45.402;37.922;2023-06-22T16:13:22;27.26;54.08
75164;HTU21D;63746;45.402;37.922;2023-06-22T16:15:48;27.25;54.10
75164;HTU21D;63746;45.402;37.922;2023-06-22T16:18:14;27.25;54.10
75164;HTU21D;63746;45.402;37.922;2023-06-22T16:20:41;27.24;54.09
75164;HTU21D;63746;45.402;37.922;2023-06-22T16:23:07;27.22;54.07
75164;HTU21D;63746;45.402;37.922;2023-06-22T16:25:33;27.21;54.06
75164;HTU21D;63746;45.402;37.922;2023-06-22T16:27:59;27.20;54.05
75164;HTU21D;63746;45.402;37.922;2023-06-22T16:30:25;27.19;54.05
75164;HTU21D;63746;45.402;37.922;2023-06-22T16:32:55;27.17;54.06
75164;HTU21D;63746;45.402;37.922;2023-06-22T16:35:24;27.17;54.04
75164;HTU21D;63746;45.402;37.922;2023-06-22T16:37:52;27.17;54.04
75164;HTU21D;63746;45.402;37.922;2023-06-22T16:40:18;27.15;54.04
75164;HTU21D;63746;45.402;37.922;2023-06-22T16:42:47;27.15;54.02
75164;HTU21D;63746;45.402;37.922;2023-06-22T16:45:14;27.13;54.02
75164;HTU21D;63746;45.402;37.922;2023-06-22T16:47:45;27.13;54.01
75164;HTU21D;63746;45.402;37.922;2023-06-22T16:50:12;27.13;54.05
75164;HTU21D;63746;45.402;37.922;2023-06-22T16:52:38;27.13;54.04
75164;HTU21D;63746;45.402;37.922;2023-06-22T16:55:07;27.11;53.99
75164;HTU21D;63746;45.402;37.922;2023-06-22T16:57:34;27.12;54.04
75164;HTU21D;63746;45.402;37.922;2023-06-22T17:00:00;27.09;54.04
75164;HTU21D;63746;45.402;37.922;2023-06-22T17:02:28;27.09;54.02
75164;HTU21D;63746;45.402;37.922;2023-06-22T17:04:55;27.06;54.00
75164;HTU21D;63746;45.402;37.922;2023-06-22T17:07:22;26.99;53.89
75164;HTU21D;63746;45.402;37.922;2023-06-22T17:09:51;26.91;53.90
75164;HTU21D;63746;45.402;37.922;2023-06-22T17:12:17;26.81;53.93
75164;HTU21D;63746;45.402;37.922;2023-06-22T17:14:53;26.69;53.97
75164;HTU21D;63746;45.402;37.922;2023-06-22T17:17:19;26.58;54.01
75164;HTU21D;63746;45.402;37.922;2023-06-22T17:19:49;26.49;54.07
75164;HTU21D;63746;45.402;37.922;2023-06-22T17:22:16;26.38;54.14
75164;HTU21D;63746;45.402;37.922;2023-06-22T17:24:43;26.26;54.19
75164;HTU21D;63746;45.402;37.922;2023-06-22T17:27:09;26.18;54.33
75164;HTU21D;63746;45.402;37.922;2023-06-22T17:29:35;26.12;54.45
75164;HTU21D;63746;45.402;37.922;2023-06-22T17:32:02;26.09;54.49
75164;HTU21D;63746;45.402;37.922;2023-06-22T17:34:29;26.07;54.50
75164;HTU21D;63746;45.402;37.922;2023-06-22T17:36:57;26.05;54.52
75164;HTU21D;63746;45.402;37.922;2023-06-22T17:39:26;26.05;54.54
75164;HTU21D;63746;45.402;37.922;2023-06-22T17:41:53;26.02;54.55
75164;HTU21D;63746;45.402;37.922;2023-06-22T17:44:22;26.01;54.54
75164;HTU21D;63746;45.402;37.922;2023-06-22T17:46:52;25.98;54.50
75164;HTU21D;63746;45.402;37.922;2023-06-22T17:49:18;25.98;54.57
75164;HTU21D;63746;45.402;37.922;2023-06-22T17:51:44;25.97;54.58
75164;HTU21D;63746;45.402;37.922;2023-06-22T17:54:11;25.94;54.52
75164;HTU21D;63746;45.402;37.922;2023-06-22T17:56:37;25.90;54.46
75164;HTU21D;63746;45.402;37.922;2023-06-22T17:59:03;25.81;54.46
75164;HTU21D;63746;45.402;37.922;2023-06-22T18:01:37;25.72;54.33
75164;HTU21D;63746;45.402;37.922;2023-06-22T18:04:11;25.62;54.36
75164;HTU21D;63746;45.402;37.922;2023-06-22T18:06:43;25.52;54.50
75164;HTU21D;63746;45.402;37.922;2023-06-22T18:09:11;25.43;54.64
75164;HTU21D;63746;45.402;37.922;2023-06-22T18:11:43;25.31;54.60
75164;HTU21D;63746;45.402;37.922;2023-06-22T18:14:10;25.22;54.78
75164;HTU21D;63746;45.402;37.922;2023-06-22T18:16:40;25.14;54.84
75164;HTU21D;63746;45.402;37.922;2023-06-22T18:19:08;25.06;54.91
75164;HTU21D;63746;45.402;37.922;2023-06-22T18:21:36;25.00;54.94
75164;HTU21D;63746;45.402;37.922;2023-06-22T18:24:02;24.91;54.99
75164;HTU21D;63746;45.402;37.922;2023-06-22T18:26:28;24.85;55.04
75164;HTU21D;63746;45.402;37.922;2023-06-22T18:28:56;24.78;55.09
75164;HTU21D;63746;45.402;37.922;2023-06-22T18:31:24;24.72;55.11
75164;HTU21D;63746;45.402;37.922;2023-06-22T18:33:53;24.65;54.49
75164;HTU21D;63746;45.402;37.922;2023-06-22T18:36:24;24.57;55.14
75164;HTU21D;63746;45.402;37.922;2023-06-22T18:38:51;24.50;55.28
75164;HTU21D;63746;45.402;37.922;2023-06-22T18:44:03;24.38;55.35
75164;HTU21D;63746;45.402;37.922;2023-06-22T18:46:33;24.32;55.35
75164;HTU21D;63746;45.402;37.922;2023-06-22T18:49:11;24.26;55.35
75164;HTU21D;63746;45.402;37.922;2023-06-22T18:51:51;24.18;55.15
75164;HTU21D;63746;45.402;37.922;2023-06-22T18:56:58;24.06;55.42
75164;HTU21D;63746;45.402;37.922;2023-06-22T18:59:46;24.02;55.21
75164;HTU21D;63746;45.402;37.922;2023-06-22T19:02:14;23.98;55.52
75164;HTU21D;63746;45.402;37.922;2023-06-22T19:04:41;23.91;54.90
75164;HTU21D;63746;45.402;37.922;2023-06-22T19:07:07;23.89;55.59
75164;HTU21D;63746;45.402;37.922;2023-06-22T19:09:34;23.83;55.65
75164;HTU21D;63746;45.402;37.922;2023-06-22T19:12:17;23.79;55.42
75164;HTU21D;63746;45.402;37.922;2023-06-22T19:15:09;23.74;55.40
75164;HTU21D;63746;45.402;37.922;2023-06-22T19:17:37;23.69;55.68
75164;HTU21D;63746;45.402;37.922;2023-06-22T19:20:04;23.64;55.68
75164;HTU21D;63746;45.402;37.922;2023-06-22T19:23:04;23.59;55.01
75164;HTU21D;63746;45.402;37.922;2023-06-22T19:25:28;23.53;55.65
75164;HTU21D;63746;45.402;37.922;2023-06-22T19:27:59;23.49;55.79
75164;HTU21D;63746;45.402;37.922;2023-06-22T19:30:26;23.45;55.81
75164;HTU21D;63746;45.402;37.922;2023-06-22T19:32:54;23.40;55.83
75164;HTU21D;63746;45.402;37.922;2023-06-22T19:35:20;23.37;55.84
75164;HTU21D;63746;45.402;37.922;2023-06-22T19:37:47;23.31;55.88
75164;HTU21D;63746;45.402;37.922;2023-06-22T19:40:15;23.30;55.89
75164;HTU21D;63746;45.402;37.922;2023-06-22T19:42:43;23.27;55.90
75164;HTU21D;63746;45.402;37.922;2023-06-22T19:45:14;23.25;55.84
75164;HTU21D;63746;45.402;37.922;2023-06-22T19:47:42;23.23;55.92
75164;HTU21D;63746;45.402;37.922;2023-06-22T19:50:09;23.18;55.91
75164;HTU21D;63746;45.402;37.922;2023-06-22T19:52:37;23.13;55.91
75164;HTU21D;63746;45.402;37.922;2023-06-22T19:55:03;23.12;55.94
75164;HTU21D;63746;45.402;37.922;2023-06-22T19:57:37;23.10;55.84
75164;HTU21D;63746;45.402;37.922;2023-06-22T20:00:04;23.08;55.95
75164;HTU21D;63746;45.402;37.922;2023-06-22T20:02:41;23.05;55.96
75164;HTU21D;63746;45.402;37.922;2023-06-22T20:05:08;23.02;55.96
75164;HTU21D;63746;45.402;37.922;2023-06-22T20:07:39;22.99;55.91
75164;HTU21D;63746;45.402;37.922;2023-06-22T20:10:14;22.95;55.87
75164;HTU21D;63746;45.402;37.922;2023-06-22T20:12:40;22.93;55.99
75164;HTU21D;63746;45.402;37.922;2023-06-22T20:15:25;22.88;55.76
75164;HTU21D;63746;45.402;37.922;2023-06-22T20:18:04;22.83;55.97
75164;HTU21D;63746;45.402;37.922;2023-06-22T20:20:36;22.79;56.01
75164;HTU21D;63746;45.402;37.922;2023-06-22T20:23:04;22.75;56.02
75164;HTU21D;63746;45.402;37.922;2023-06-22T20:25:37;22.70;55.96
75164;HTU21D;63746;45.402;37.922;2023-06-22T20:28:14;22.67;55.94
75164;HTU21D;63746;45.402;37.922;2023-06-22T20:31:02;22.64;55.90
75164;HTU21D;63746;45.402;37.922;2023-06-22T20:33:30;22.60;56.10
75164;HTU21D;63746;45.402;37.922;2023-06-22T20:35:56;22.56;56.14
75164;HTU21D;63746;45.402;37.922;2023-06-22T20:38:22;22.54;56.23
75164;HTU21D;63746;45.402;37.922;2023-06-22T20:40:53;22.52;56.18
75164;HTU21D;63746;45.402;37.922;2023-06-22T20:43:19;22.48;56.21
75164;HTU21D;63746;45.402;37.922;2023-06-22T20:45:47;22.47;56.23
75164;HTU21D;63746;45.402;37.922;2023-06-22T20:48:13;22.46;56.23